Time;durP1;ratioP1;P1;durP2;ratioP2;P2;SDS_P1;SDS_P2;PMS_P1;PMS_P2;Temp;Humidity;BMP_temperature;BMP_pressure;BME280_temperature;BME280_humidity;BME280_pressure;Samples;Min_cycle;Max_cycle;Signal;HPM_P1;HPM_P2
2022/10/08 00:00:46;;;;;;;;;;;;;;;;;;5061077;28;835;-66
2022/10/08 00:03:12;;;;;;;;;;;;;;;;;;5064665;28;807;-65
2022/10/08 00:05:37;;;;;;;;;;;;;;;;;;5064136;28;1977;-65
2022/10/08 00:08:02;;;;;;;;;;;;;;;;;;5064473;28;941;-65
2022/10/08 00:10:27;;;;;;;;;;;;;;;;;;5064067;28;842;-65
2022/10/08 00:12:52;;;;;;;;;;;;;;;;;;5064430;28;886;-65
2022/10/08 00:15:18;;;;;;;;;;;;;;;;;;5064019;28;981;-65
2022/10/08 00:17:43;;;;;;;;;;;;;;;;;;5064247;28;1172;-65
2022/10/08 00:20:08;;;;;;;;;;;;;;;;;;5064079;28;1040;-65
2022/10/08 00:22:33;;;;;;;;;;;;;;;;;;5064472;28;807;-65
2022/10/08 00:24:58;;;;;;;;;;;;;;;;;;5063975;28;1902;-65
2022/10/08 00:27:24;;;;;;;;;;;;;;;;;;5064155;28;1267;-65
2022/10/08 00:29:50;;;;;;;;;;;;;;;;;;5063925;28;838;-65
2022/10/08 00:32:17;;;;;;;;;;;;;;;;;;5064271;28;830;-65
2022/10/08 00:34:43;;;;;;;;;;;;;;;;;;5063744;28;861;-65
2022/10/08 00:37:08;;;;;;;;;;;;;;;;;;5064160;28;1176;-65
2022/10/08 00:39:33;;;;;;;;;;;;;;;;;;5063753;28;922;-65
2022/10/08 00:41:58;;;;;;;;;;;;;;;;;;5063913;28;783;-65
2022/10/08 00:44:42;;;;;;;;;;;;;;;;;;5063707;28;1951;-65
2022/10/08 00:47:26;;;;;;;;;;;;;;;;;;5086147;22;3724;-77
2022/10/08 00:49:53;;;;;;;;;;;;;;;;;;5083875;28;911;-77
2022/10/08 00:52:20;;;;;;;;;;;;;;;;;;5083885;28;842;-77
2022/10/08 00:54:47;;;;;;;;;;;;;;;;;;5083552;28;827;-77
2022/10/08 00:57:13;;;;;;;;;;;;;;;;;;5083729;28;1164;-77
2022/10/08 00:59:38;;;;;;;;;;;;;;;;;;5083729;28;910;-78
2022/10/08 01:02:07;;;;;;;;;;;;;;;;;;5083876;28;1004;-77
2022/10/08 01:04:32;;;;;;;;;;;;;;;;;;5083583;28;1918;-77
2022/10/08 01:07:10;;;;;;;;;;;;;;;;;;5083613;28;1152;-77
2022/10/08 01:09:47;;;;;;;;;;;;;;;;;;5083507;28;822;-77
2022/10/08 01:12:17;;;;;;;;;;;;;;;;;;5082967;28;1045;-77
2022/10/08 01:14:54;;;;;;;;;;;;;;;;;;5082865;28;795;-77
2022/10/08 01:17:30;;;;;;;;;;;;;;;;;;5083403;28;1290;-77
2022/10/08 01:20:10;;;;;;;;;;;;;;;;;;5083299;28;989;-79
2022/10/08 01:22:54;;;;;;;;;;;;;;;;;;5083654;28;795;-78
2022/10/08 01:25:32;;;;;;;;;;;;;;;;;;5083002;28;1897;-78
2022/10/08 01:28:17;;;;;;;;;;;;;;;;;;5083321;28;1152;-78
2022/10/08 01:30:45;;;;;;;;;;;;;;;;;;5060563;28;1110;-79
2022/10/08 01:33:15;;;;;;;;;;;;;;;;;;5082334;28;957;-78
2022/10/08 01:35:43;;;;;;;;;;;;;;;;;;5064996;28;1433;-78
2022/10/08 01:38:11;;;;;;;;;;;;;;;;;;5083069;28;1250;-78
2022/10/08 01:40:38;;;;;;;;;;;;;;;;;;5083059;28;1215;-77
2022/10/08 01:43:06;;;;;;;;;;;;;;;;;;5083170;28;1008;-78
2022/10/08 01:45:34;;;;;;;;;;;;;;;;;;5082826;28;1889;-77
2022/10/08 01:48:02;;;;;;;;;;;;;;;;;;5082906;28;1147;-78
2022/10/08 01:50:33;;;;;;;;;;;;;;;;;;5082838;28;913;-78
2022/10/08 01:53:02;;;;;;;;;;;;;;;;;;5082875;28;826;-78
2022/10/08 01:55:33;;;;;;;;;;;;;;;;;;5082626;28;977;-78
2022/10/08 01:58:01;;;;;;;;;;;;;;;;;;5082740;28;1164;-78
2022/10/08 02:00:27;;;;;;;;;;;;;;;;;;5082753;28;1180;-78
2022/10/08 02:02:53;;;;;;;;;;;;;;;;;;5082770;28;992;-77
2022/10/08 02:05:18;;;;;;;;;;;;;;;;;;5082519;28;1906;-77
2022/10/08 02:07:44;;;;;;;;;;;;;;;;;;5064639;28;1250;-77
2022/10/08 02:10:10;;;;;;;;;;;;;;;;;;5082722;28;964;-77
2022/10/08 02:12:36;;;;;;;;;;;;;;;;;;5082681;28;904;-77
2022/10/08 02:15:03;;;;;;;;;;;;;;;;;;5082572;28;861;-77
2022/10/08 02:17:47;;;;;;;;;;;;;;;;;;5082803;28;1164;-77
2022/10/08 02:20:13;;;;;;;;;;;;;;;;;;5082502;28;1065;-77
2022/10/08 02:22:40;;;;;;;;;;;;;;;;;;5082499;28;1005;-77
2022/10/08 02:25:20;;;;;;;;;;;;;;;;;;5082238;28;1955;-78
2022/10/08 02:27:49;;;;;;;;;;;;;;;;;;5082448;28;1176;-78
2022/10/08 02:30:15;;;;;;;;;;;;;;;;;;5082245;28;932;-78
2022/10/08 02:32:47;;;;;;;;;;;;;;;;;;5082060;28;826;-78
2022/10/08 02:35:16;;;;;;;;;;;;;;;;;;5082136;28;851;-78
2022/10/08 02:37:47;;;;;;;;;;;;;;;;;;5064154;28;1226;-78
2022/10/08 02:40:14;;;;;;;;;;;;;;;;;;5082132;28;1083;-78
2022/10/08 02:42:42;;;;;;;;;;;;;;;;;;5082130;28;806;-78
2022/10/08 02:45:17;;;;;;;;;;;;;;;;;;5081919;28;1963;-78
2022/10/08 02:47:44;;;;;;;;;;;;;;;;;;5082012;28;1130;-78
2022/10/08 02:50:11;;;;;;;;;;;;;;;;;;5082010;28;1053;-78
2022/10/08 02:52:38;;;;;;;;;;;;;;;;;;5082097;28;858;-78
2022/10/08 02:55:09;;;;;;;;;;;;;;;;;;5081617;28;886;-78
2022/10/08 02:57:38;;;;;;;;;;;;;;;;;;5082250;28;1203;-78
2022/10/08 03:00:04;;;;;;;;;;;;;;;;;;5081843;28;985;-78
2022/10/08 03:02:40;;;;;;;;;;;;;;;;;;5081805;28;1326;-78
2022/10/08 03:05:08;;;;;;;;;;;;;;;;;;5081323;28;1898;-78
2022/10/08 03:07:34;;;;;;;;;;;;;;;;;;5081815;28;1163;-77
2022/10/08 03:10:02;;;;;;;;;;;;;;;;;;5081895;28;815;-78
2022/10/08 03:12:28;;;;;;;;;;;;;;;;;;5081854;28;957;-78
2022/10/08 03:14:53;;;;;;;;;;;;;;;;;;5081534;28;1017;-78
2022/10/08 03:17:22;;;;;;;;;;;;;;;;;;5081688;28;1136;-78
2022/10/08 03:19:47;;;;;;;;;;;;;;;;;;5081578;28;839;-78
2022/10/08 03:22:12;;;;;;;;;;;;;;;;;;5081683;28;1005;-78
2022/10/08 03:24:38;;;;;;;;;;;;;;;;;;5081173;28;1897;-79
2022/10/08 03:27:03;;;;;;;;;;;;;;;;;;5081548;28;1150;-77
2022/10/08 03:29:28;;;;;;;;;;;;;;;;;;5081414;28;1005;-78
2022/10/08 03:31:53;;;;;;;;;;;;;;;;;;5081392;28;953;-77
2022/10/08 03:34:19;;;;;;;;;;;;;;;;;;5081294;28;807;-78
2022/10/08 03:36:44;;;;;;;;;;;;;;;;;;5080449;28;1235;-78
2022/10/08 03:39:09;;;;;;;;;;;;;;;;;;5081271;28;917;-78
2022/10/08 03:41:35;;;;;;;;;;;;;;;;;;5081660;28;834;-78
2022/10/08 03:44:00;;;;;;;;;;;;;;;;;;5081379;28;1931;-78
2022/10/08 03:46:25;;;;;;;;;;;;;;;;;;5080764;28;1342;-77
2022/10/08 03:48:50;;;;;;;;;;;;;;;;;;5081400;28;799;-78
2022/10/08 03:51:17;;;;;;;;;;;;;;;;;;5080982;28;942;-78
2022/10/08 03:53:42;;;;;;;;;;;;;;;;;;5081243;28;1020;-78
2022/10/08 03:56:10;;;;;;;;;;;;;;;;;;5080725;28;1286;-77
2022/10/08 03:58:35;;;;;;;;;;;;;;;;;;5081127;28;851;-78
2022/10/08 04:01:04;;;;;;;;;;;;;;;;;;5081009;28;841;-77
2022/10/08 04:03:30;;;;;;;;;;;;;;;;;;5081036;28;973;-77
2022/10/08 04:05:56;;;;;;;;;;;;;;;;;;5080272;28;1981;-77
2022/10/08 04:08:21;;;;;;;;;;;;;;;;;;5081344;28;842;-77
2022/10/08 04:10:46;;;;;;;;;;;;;;;;;;5080900;28;811;-77
2022/10/08 04:13:12;;;;;;;;;;;;;;;;;;5081024;28;1059;-77
2022/10/08 04:15:38;;;;;;;;;;;;;;;;;;5080546;28;984;-77
2022/10/08 04:18:03;;;;;;;;;;;;;;;;;;5081200;28;1235;-77
2022/10/08 04:20:28;;;;;;;;;;;;;;;;;;5080916;28;787;-77
2022/10/08 04:22:53;;;;;;;;;;;;;;;;;;5080826;28;1118;-77
2022/10/08 04:25:18;;;;;;;;;;;;;;;;;;5080487;28;1955;-77
2022/10/08 04:27:47;;;;;;;;;;;;;;;;;;5081041;28;1121;-77
2022/10/08 04:30:13;;;;;;;;;;;;;;;;;;5080669;28;819;-77
2022/10/08 04:32:38;;;;;;;;;;;;;;;;;;5080932;28;993;-77
2022/10/08 04:35:03;;;;;;;;;;;;;;;;;;5080690;28;870;-77
2022/10/08 04:37:28;;;;;;;;;;;;;;;;;;5080578;28;1242;-77
2022/10/08 04:39:54;;;;;;;;;;;;;;;;;;5080774;28;898;-77
2022/10/08 04:42:19;;;;;;;;;;;;;;;;;;5080415;28;803;-77
2022/10/08 04:44:45;;;;;;;;;;;;;;;;;;5080353;28;1909;-77
2022/10/08 04:47:10;;;;;;;;;;;;;;;;;;5081175;28;1184;-77
2022/10/08 04:49:35;;;;;;;;;;;;;;;;;;5084040;28;981;-77
2022/10/08 04:52:00;;;;;;;;;;;;;;;;;;5083760;28;834;-76
2022/10/08 04:54:26;;;;;;;;;;;;;;;;;;5084145;28;798;-76
2022/10/08 04:56:51;;;;;;;;;;;;;;;;;;5083696;28;1286;-76
2022/10/08 04:59:16;;;;;;;;;;;;;;;;;;5084325;28;720;-76
2022/10/08 05:01:41;;;;;;;;;;;;;;;;;;5083695;28;1055;-76
2022/10/08 05:04:06;;;;;;;;;;;;;;;;;;5083874;28;1897;-77
2022/10/08 05:06:31;;;;;;;;;;;;;;;;;;5083318;28;1184;-76
2022/10/08 05:08:58;;;;;;;;;;;;;;;;;;5083926;28;850;-76
2022/10/08 05:11:24;;;;;;;;;;;;;;;;;;5083601;28;838;-77
2022/10/08 05:13:51;;;;;;;;;;;;;;;;;;5083492;28;839;-76
2022/10/08 05:16:17;;;;;;;;;;;;;;;;;;5083109;28;1215;-76
2022/10/08 05:18:42;;;;;;;;;;;;;;;;;;5083896;28;811;-77
2022/10/08 05:21:08;;;;;;;;;;;;;;;;;;5083499;28;985;-78
2022/10/08 05:23:34;;;;;;;;;;;;;;;;;;5083356;28;894;-77
2022/10/08 05:26:01;;;;;;;;;;;;;;;;;;5083121;28;1890;-77
2022/10/08 05:28:26;;;;;;;;;;;;;;;;;;5083431;28;823;-77
2022/10/08 05:30:52;;;;;;;;;;;;;;;;;;5083534;28;969;-77
2022/10/08 05:33:17;;;;;;;;;;;;;;;;;;5083321;28;799;-77
2022/10/08 05:35:42;;;;;;;;;;;;;;;;;;5082963;28;984;-77
2022/10/08 05:38:07;;;;;;;;;;;;;;;;;;5083150;28;1160;-77
2022/10/08 05:40:32;;;;;;;;;;;;;;;;;;5083341;28;1056;-77
2022/10/08 05:42:57;;;;;;;;;;;;;;;;;;5083384;28;898;-77
2022/10/08 05:45:22;;;;;;;;;;;;;;;;;;5083257;28;1885;-77
2022/10/08 05:47:48;;;;;;;;;;;;;;;;;;5083346;28;1277;-77
2022/10/08 05:50:13;;;;;;;;;;;;;;;;;;5083086;28;794;-77
2022/10/08 05:52:38;;;;;;;;;;;;;;;;;;5082891;28;846;-78
2022/10/08 05:55:04;;;;;;;;;;;;;;;;;;5082700;28;807;-77
2022/10/08 05:57:29;;;;;;;;;;;;;;;;;;5082908;28;1156;-77
2022/10/08 05:59:54;;;;;;;;;;;;;;;;;;5064349;28;811;-76
2022/10/08 06:02:20;;;;;;;;;;;;;;;;;;5083006;28;908;-78
2022/10/08 06:04:47;;;;;;;;;;;;;;;;;;5082751;28;1902;-77
2022/10/08 06:07:12;;;;;;;;;;;;;;;;;;5082691;28;1250;-77
2022/10/08 06:09:37;;;;;;;;;;;;;;;;;;5082850;28;890;-78
2022/10/08 06:12:02;;;;;;;;;;;;;;;;;;5082839;28;1119;-77
2022/10/08 06:14:27;;;;;;;;;;;;;;;;;;5082144;28;1008;-78
2022/10/08 06:16:53;;;;;;;;;;;;;;;;;;5082724;28;1187;-77
2022/10/08 06:19:18;;;;;;;;;;;;;;;;;;5082840;28;976;-77
2022/10/08 06:21:43;;;;;;;;;;;;;;;;;;5082691;28;977;-78
2022/10/08 06:24:10;;;;;;;;;;;;;;;;;;5080572;28;1954;-77
2022/10/08 06:26:36;;;;;;;;;;;;;;;;;;5082201;28;1168;-77
2022/10/08 06:29:04;;;;;;;;;;;;;;;;;;5082453;28;791;-77
2022/10/08 06:31:29;;;;;;;;;;;;;;;;;;5082534;28;819;-77
2022/10/08 06:33:57;;;;;;;;;;;;;;;;;;5082222;28;918;-77
2022/10/08 06:36:24;;;;;;;;;;;;;;;;;;5081861;28;1190;-77
2022/10/08 06:38:59;;;;;;;;;;;;;;;;;;5082247;28;882;-78
2022/10/08 06:41:26;;;;;;;;;;;;;;;;;;5082195;28;925;-78
2022/10/08 06:43:51;;;;;;;;;;;;;;;;;;5082105;28;1966;-78
2022/10/08 06:48:52;;;;;;;;;;;;;;;;;;5038569;28;2071;-76
2022/10/08 06:51:17;;;;;;;;;;;;;;;;;;5041486;28;1045;-76
2022/10/08 06:53:43;;;;;;;;;;;;;;;;;;5023813;28;840;-76
2022/10/08 06:56:16;;;;;;;;;;;;;;;;;;5041067;28;815;-76
2022/10/08 06:58:43;;;;;;;;;;;;;;;;;;5041833;28;1209;-76
2022/10/08 07:01:08;;;;;;;;;;;;;;;;;;5041529;28;913;-76
2022/10/08 07:03:34;;;;;;;;;;;;;;;;;;5041437;28;922;-76
2022/10/08 07:06:00;;;;;;;;;;;;;;;;;;5040657;28;1983;-76
2022/10/08 07:08:25;;;;;;;;;;;;;;;;;;5041158;28;1159;-76
2022/10/08 07:10:51;;;;;;;;;;;;;;;;;;5040440;28;968;-76
2022/10/08 07:13:16;;;;;;;;;;;;;;;;;;5040961;28;736;-76
2022/10/08 07:15:42;;;;;;;;;;;;;;;;;;5040628;28;795;-76
2022/10/08 07:18:10;;;;;;;;;;;;;;;;;;5041086;28;1143;-76
2022/10/08 07:20:35;;;;;;;;;;;;;;;;;;5041020;28;815;-76
2022/10/08 07:23:00;;;;;;;;;;;;;;;;;;5041109;28;946;-76
2022/10/08 07:25:26;;;;;;;;;;;;;;;;;;5040562;28;1951;-76
2022/10/08 07:27:51;;;;;;;;;;;;;;;;;;5040796;28;1266;-76
2022/10/08 07:30:16;;;;;;;;;;;;;;;;;;5041012;28;859;-76
2022/10/08 07:32:41;;;;;;;;;;;;;;;;;;5040843;28;902;-76
2022/10/08 07:35:07;;;;;;;;;;;;;;;;;;5040592;28;989;-76
2022/10/08 07:37:32;;;;;;;;;;;;;;;;;;5040882;28;1230;-76
2022/10/08 07:39:57;;;;;;;;;;;;;;;;;;5040859;28;838;-76
2022/10/08 07:42:22;;;;;;;;;;;;;;;;;;5040605;28;981;-76
2022/10/08 07:44:47;;;;;;;;;;;;;;;;;;5040231;28;1894;-76
2022/10/08 07:47:12;;;;;;;;;;;;;;;;;;5040452;28;1241;-75
2022/10/08 07:49:38;;;;;;;;;;;;;;;;;;5040908;28;787;-77
2022/10/08 07:52:03;;;;;;;;;;;;;;;;;;5040784;28;787;-76
2022/10/08 07:54:28;;;;;;;;;;;;;;;;;;5040315;28;894;-76
2022/10/08 07:56:53;;;;;;;;;;;;;;;;;;5040361;28;1229;-75
2022/10/08 07:59:19;;;;;;;;;;;;;;;;;;5022748;28;879;-76
2022/10/08 08:01:44;;;;;;;;;;;;;;;;;;5041012;28;745;-75
2022/10/08 08:04:09;;;;;;;;;;;;;;;;;;5040563;28;1882;-75
2022/10/08 08:06:39;;;;;;;;;;;;;;;;;;5040149;28;1143;-75
2022/10/08 08:09:04;;;;;;;;;;;;;;;;;;5040600;28;872;-75
2022/10/08 08:11:30;;;;;;;;;;;;;;;;;;5022511;28;1230;-75
2022/10/08 08:13:55;;;;;;;;;;;;;;;;;;5040334;28;811;-76
2022/10/08 08:16:24;;;;;;;;;;;;;;;;;;5040418;28;1149;-75
2022/10/08 08:18:50;;;;;;;;;;;;;;;;;;5040209;28;799;-76
2022/10/08 08:21:20;;;;;;;;;;;;;;;;;;5040256;28;907;-76
2022/10/08 08:23:50;;;;;;;;;;;;;;;;;;5043177;28;1890;-76
2022/10/08 08:26:16;;;;;;;;;;;;;;;;;;5043498;28;859;-76
2022/10/08 08:28:42;;;;;;;;;;;;;;;;;;5043432;28;1272;-75
2022/10/08 08:31:14;;;;;;;;;;;;;;;;;;5043879;28;795;-76
2022/10/08 08:33:40;;;;;;;;;;;;;;;;;;5043531;28;764;-76
2022/10/08 08:36:06;;;;;;;;;;;;;;;;;;5043255;28;842;-75
2022/10/08 08:38:34;;;;;;;;;;;;;;;;;;5043441;28;1224;-75
2022/10/08 08:41:11;;;;;;;;;;;;;;;;;;5043417;28;1060;-75
2022/10/08 08:43:36;;;;;;;;;;;;;;;;;;5043520;28;796;-75
2022/10/08 08:46:02;;;;;;;;;;;;;;;;;;5043195;28;1898;-76
2022/10/08 08:48:31;;;;;;;;;;;;;;;;;;5043879;28;1179;-76
2022/10/08 08:50:58;;;;;;;;;;;;;;;;;;5043469;28;847;-76
2022/10/08 08:53:23;;;;;;;;;;;;;;;;;;5043525;28;952;-75
2022/10/08 08:55:50;;;;;;;;;;;;;;;;;;5042885;28;850;-76
2022/10/08 08:58:22;;;;;;;;;;;;;;;;;;5043040;28;1244;-76
2022/10/08 09:00:56;;;;;;;;;;;;;;;;;;5043496;28;823;-76
2022/10/08 09:03:24;;;;;;;;;;;;;;;;;;5042901;28;843;-76
2022/10/08 09:05:56;;;;;;;;;;;;;;;;;;5042686;28;1961;-76
2022/10/08 09:08:24;;;;;;;;;;;;;;;;;;5043052;28;1197;-76
2022/10/08 09:10:55;;;;;;;;;;;;;;;;;;5043005;28;804;-76
2022/10/08 09:13:34;;;;;;;;;;;;;;;;;;5042951;28;1033;-76
2022/10/08 09:16:00;;;;;;;;;;;;;;;;;;5042621;28;907;-75
2022/10/08 09:18:25;;;;;;;;;;;;;;;;;;5043087;28;1254;-76
2022/10/08 09:20:50;;;;;;;;;;;;;;;;;;5042839;28;1064;-76
2022/10/08 09:23:25;;;;;;;;;;;;;;;;;;5042774;28;828;-76
2022/10/08 09:25:57;;;;;;;;;;;;;;;;;;5042461;28;1898;-76
2022/10/08 09:28:43;;;;;;;;;;;;;;;;;;5042770;28;1168;-76
2022/10/08 09:31:17;;;;;;;;;;;;;;;;;;5042634;28;828;-76
2022/10/08 09:33:42;;;;;;;;;;;;;;;;;;5041949;28;902;-76
2022/10/08 09:36:08;;;;;;;;;;;;;;;;;;5042434;28;1048;-76
2022/10/08 09:38:35;;;;;;;;;;;;;;;;;;5042568;28;1168;-76
2022/10/08 09:41:05;;;;;;;;;;;;;;;;;;5042765;28;858;-76
2022/10/08 09:43:32;;;;;;;;;;;;;;;;;;5042246;28;917;-76
2022/10/08 09:45:57;;;;;;;;;;;;;;;;;;5042129;28;1965;-76
2022/10/08 09:48:27;;;;;;;;;;;;;;;;;;5042447;28;1333;-76
2022/10/08 09:50:57;;;;;;;;;;;;;;;;;;5042582;28;885;-76
2022/10/08 09:53:23;;;;;;;;;;;;;;;;;;5042422;28;925;-76
2022/10/08 09:55:51;;;;;;;;;;;;;;;;;;5042112;28;942;-76
2022/10/08 09:58:17;;;;;;;;;;;;;;;;;;5042199;28;1274;-76
2022/10/08 10:00:43;;;;;;;;;;;;;;;;;;5042450;28;834;-76
2022/10/08 10:03:18;;;;;;;;;;;;;;;;;;5042276;28;835;-76
2022/10/08 10:05:49;;;;;;;;;;;;;;;;;;5041614;28;1971;-76
2022/10/08 10:08:34;;;;;;;;;;;;;;;;;;5042449;28;1292;-76
2022/10/08 10:10:59;;;;;;;;;;;;;;;;;;5041953;28;1535;-76
2022/10/08 10:13:33;;;;;;;;;;;;;;;;;;5042307;28;1071;-76
2022/10/08 10:16:01;;;;;;;;;;;;;;;;;;5041570;28;811;-76
2022/10/08 10:18:33;;;;;;;;;;;;;;;;;;5042135;28;1275;-76
2022/10/08 10:21:01;;;;;;;;;;;;;;;;;;5041924;28;799;-76
2022/10/08 10:23:35;;;;;;;;;;;;;;;;;;5042023;28;772;-76
2022/10/08 10:26:07;;;;;;;;;;;;;;;;;;5041529;28;1893;-76
2022/10/08 10:28:40;;;;;;;;;;;;;;;;;;5041890;28;1152;-75
2022/10/08 10:31:14;;;;;;;;;;;;;;;;;;5041797;28;827;-76
2022/10/08 10:33:58;;;;;;;;;;;;;;;;;;5041830;28;953;-76
2022/10/08 10:36:25;;;;;;;;;;;;;;;;;;5041186;28;1164;-75
2022/10/08 10:39:09;;;;;;;;;;;;;;;;;;5042075;28;854;-76
2022/10/08 10:41:36;;;;;;;;;;;;;;;;;;5041446;28;984;-76
2022/10/08 10:44:04;;;;;;;;;;;;;;;;;;5041457;28;1902;-75
2022/10/08 10:46:38;;;;;;;;;;;;;;;;;;5040887;28;1179;-76
2022/10/08 10:49:12;;;;;;;;;;;;;;;;;;5041702;28;1014;-76
2022/10/08 10:51:43;;;;;;;;;;;;;;;;;;5023765;28;1522;-76
2022/10/08 10:54:14;;;;;;;;;;;;;;;;;;5041434;28;957;-76
2022/10/08 10:56:44;;;;;;;;;;;;;;;;;;5041050;28;1195;-76
2022/10/08 10:59:30;;;;;;;;;;;;;;;;;;5041955;28;884;-76
2022/10/08 11:02:01;;;;;;;;;;;;;;;;;;5041413;28;973;-76
2022/10/08 11:04:35;;;;;;;;;;;;;;;;;;5041182;28;1894;-76
2022/10/08 11:07:04;;;;;;;;;;;;;;;;;;5040868;28;1132;-76
2022/10/08 11:09:32;;;;;;;;;;;;;;;;;;5041476;28;803;-76
2022/10/08 11:12:19;;;;;;;;;;;;;;;;;;5041165;28;762;-76
2022/10/08 11:15:03;;;;;;;;;;;;;;;;;;5041021;28;1084;-76
2022/10/08 11:17:34;;;;;;;;;;;;;;;;;;5038948;28;1245;-76
2022/10/08 11:20:18;;;;;;;;;;;;;;;;;;5041263;28;918;-76
2022/10/08 11:22:46;;;;;;;;;;;;;;;;;;5041046;28;914;-76
2022/10/08 11:25:14;;;;;;;;;;;;;;;;;;5040739;28;1890;-76
2022/10/08 11:27:55;;;;;;;;;;;;;;;;;;5040871;28;1267;-76
2022/10/08 11:30:34;;;;;;;;;;;;;;;;;;5023282;28;791;-76
2022/10/08 11:32:59;;;;;;;;;;;;;;;;;;5041019;28;894;-76
2022/10/08 11:35:34;;;;;;;;;;;;;;;;;;5040714;28;1013;-76
2022/10/08 11:38:04;;;;;;;;;;;;;;;;;;5040745;28;1171;-76
2022/10/08 11:40:36;;;;;;;;;;;;;;;;;;5023061;28;934;-76
2022/10/08 11:43:19;;;;;;;;;;;;;;;;;;5040753;28;977;-76
2022/10/08 11:45:45;;;;;;;;;;;;;;;;;;5040372;28;1893;-76
2022/10/08 11:48:42;;;;;;;;;;;;;;;;;;5040693;28;1252;-76
2022/10/08 11:51:19;;;;;;;;;;;;;;;;;;4996537;28;1329;-76
2022/10/08 11:54:03;;;;;;;;;;;;;;;;;;5040589;28;1052;-76
2022/10/08 11:56:29;;;;;;;;;;;;;;;;;;5039918;28;1176;-76
2022/10/08 11:58:55;;;;;;;;;;;;;;;;;;5040551;28;729;-76
2022/10/08 12:01:21;;;;;;;;;;;;;;;;;;5040920;28;902;-76
2022/10/08 12:03:59;;;;;;;;;;;;;;;;;;5040399;28;736;-76
2022/10/08 12:06:26;;;;;;;;;;;;;;;;;;5040037;28;1298;-76
2022/10/08 12:09:01;;;;;;;;;;;;;;;;;;5040381;28;815;-76
2022/10/08 12:11:29;;;;;;;;;;;;;;;;;;5040283;28;815;-77
2022/10/08 12:14:09;;;;;;;;;;;;;;;;;;5040757;28;808;-77
2022/10/08 12:16:50;;;;;;;;;;;;;;;;;;5039837;28;1267;-76
2022/10/08 12:19:36;;;;;;;;;;;;;;;;;;5040047;28;970;-76
2022/10/08 12:22:13;;;;;;;;;;;;;;;;;;5040253;28;934;-76
2022/10/08 12:24:38;;;;;;;;;;;;;;;;;;5039883;28;2205;-76
2022/10/08 12:27:16;;;;;;;;;;;;;;;;;;5039973;28;1195;-75
2022/10/08 12:29:58;;;;;;;;;;;;;;;;;;5039969;28;899;-76
2022/10/08 12:32:24;;;;;;;;;;;;;;;;;;5040016;28;922;-76
2022/10/08 12:34:49;;;;;;;;;;;;;;;;;;5039673;28;926;-76
2022/10/08 12:37:20;;;;;;;;;;;;;;;;;;5039878;28;1344;-76
2022/10/08 12:39:46;;;;;;;;;;;;;;;;;;5040114;28;973;-76
2022/10/08 12:42:16;;;;;;;;;;;;;;;;;;5040128;28;1017;-76
2022/10/08 12:45:00;;;;;;;;;;;;;;;;;;5039815;28;1897;-76
2022/10/08 12:47:35;;;;;;;;;;;;;;;;;;5056235;22;2052;-76
2022/10/08 12:50:19;;;;;;;;;;;;;;;;;;5039239;28;1689;-77
2022/10/08 12:52:45;;;;;;;;;;;;;;;;;;5040634;28;1025;-76
2022/10/08 12:55:14;;;;;;;;;;;;;;;;;;5040068;28;857;-76
2022/10/08 12:57:40;;;;;;;;;;;;;;;;;;5036749;28;1188;-76
2022/10/08 13:00:07;;;;;;;;;;;;;;;;;;5020481;28;1037;-77
2022/10/08 13:02:36;;;;;;;;;;;;;;;;;;5020582;28;1265;-77
2022/10/08 13:05:03;;;;;;;;;;;;;;;;;;5020208;28;1910;-77
2022/10/08 13:07:30;;;;;;;;;;;;;;;;;;5020356;28;1195;-76
2022/10/08 13:09:56;;;;;;;;;;;;;;;;;;5022373;28;907;-77
2022/10/08 13:12:22;;;;;;;;;;;;;;;;;;5023880;28;1009;-77
2022/10/08 13:14:56;;;;;;;;;;;;;;;;;;5023505;28;810;-77
2022/10/08 13:17:32;;;;;;;;;;;;;;;;;;5023589;28;1689;-76
2022/10/08 13:20:06;;;;;;;;;;;;;;;;;;5023833;28;819;-77
2022/10/08 13:22:31;;;;;;;;;;;;;;;;;;5023699;28;1013;-77
2022/10/08 13:24:56;;;;;;;;;;;;;;;;;;5023208;28;1898;-77
2022/10/08 13:27:24;;;;;;;;;;;;;;;;;;5023346;28;1243;-76
2022/10/08 13:29:49;;;;;;;;;;;;;;;;;;5023740;28;910;-77
2022/10/08 13:32:14;;;;;;;;;;;;;;;;;;5023580;28;894;-77
2022/10/08 13:34:41;;;;;;;;;;;;;;;;;;5023306;28;822;-77
2022/10/08 13:37:12;;;;;;;;;;;;;;;;;;5023509;28;914;-77
2022/10/08 13:39:39;;;;;;;;;;;;;;;;;;5023285;28;1270;-76
2022/10/08 13:42:09;;;;;;;;;;;;;;;;;;5023337;28;1647;-76
2022/10/08 13:44:36;;;;;;;;;;;;;;;;;;5023088;28;1898;-77
2022/10/08 13:47:01;;;;;;;;;;;;;;;;;;5023166;28;1041;-77
2022/10/08 13:49:27;;;;;;;;;;;;;;;;;;5023246;28;1243;-77
2022/10/08 13:51:53;;;;;;;;;;;;;;;;;;5023066;28;862;-77
2022/10/08 13:54:23;;;;;;;;;;;;;;;;;;5023436;28;918;-76
2022/10/08 13:56:48;;;;;;;;;;;;;;;;;;5022724;28;783;-76
2022/10/08 13:59:14;;;;;;;;;;;;;;;;;;5023147;28;1244;-76
2022/10/08 14:01:39;;;;;;;;;;;;;;;;;;5022975;28;1053;-76
2022/10/08 14:04:04;;;;;;;;;;;;;;;;;;5023079;28;1906;-76
2022/10/08 14:06:29;;;;;;;;;;;;;;;;;;5022556;28;760;-77
2022/10/08 14:08:55;;;;;;;;;;;;;;;;;;5022967;28;1149;-77
2022/10/08 14:11:20;;;;;;;;;;;;;;;;;;5022892;28;874;-77
2022/10/08 14:13:46;;;;;;;;;;;;;;;;;;5023024;28;922;-77
2022/10/08 14:16:11;;;;;;;;;;;;;;;;;;5022369;28;783;-77
2022/10/08 14:18:36;;;;;;;;;;;;;;;;;;5022587;28;1168;-76
2022/10/08 14:21:01;;;;;;;;;;;;;;;;;;5022190;28;1052;-77
2022/10/08 14:23:27;;;;;;;;;;;;;;;;;;5023045;28;816;-77
2022/10/08 14:25:52;;;;;;;;;;;;;;;;;;5022272;28;1894;-77
2022/10/08 14:28:18;;;;;;;;;;;;;;;;;;5022597;28;1176;-77
2022/10/08 14:30:43;;;;;;;;;;;;;;;;;;5022536;28;862;-76
2022/10/08 14:33:08;;;;;;;;;;;;;;;;;;5022650;28;1052;-76
2022/10/08 14:35:33;;;;;;;;;;;;;;;;;;5022285;28;894;-76
2022/10/08 14:37:59;;;;;;;;;;;;;;;;;;5022235;28;1144;-76
2022/10/08 14:40:24;;;;;;;;;;;;;;;;;;5022540;28;953;-75
2022/10/08 14:42:49;;;;;;;;;;;;;;;;;;5021063;28;970;-75
2022/10/08 14:45:14;;;;;;;;;;;;;;;;;;5022125;28;1961;-76
2022/10/08 14:47:39;;;;;;;;;;;;;;;;;;5021789;28;1188;-76
2022/10/08 14:50:05;;;;;;;;;;;;;;;;;;5022383;28;772;-76
2022/10/08 14:52:31;;;;;;;;;;;;;;;;;;5022164;28;859;-76
2022/10/08 14:54:56;;;;;;;;;;;;;;;;;;5022144;28;890;-76
2022/10/08 14:57:21;;;;;;;;;;;;;;;;;;5022192;28;1165;-76
2022/10/08 14:59:47;;;;;;;;;;;;;;;;;;5022472;28;799;-76
2022/10/08 15:02:12;;;;;;;;;;;;;;;;;;5021901;28;993;-76
2022/10/08 15:04:37;;;;;;;;;;;;;;;;;;5021965;28;1977;-76
2022/10/08 15:07:03;;;;;;;;;;;;;;;;;;5021714;28;918;-76
2022/10/08 15:09:30;;;;;;;;;;;;;;;;;;5022330;28;1168;-76
2022/10/08 15:11:55;;;;;;;;;;;;;;;;;;5021910;28;853;-76
2022/10/08 15:14:20;;;;;;;;;;;;;;;;;;5022014;28;819;-76
2022/10/08 15:16:45;;;;;;;;;;;;;;;;;;5021822;28;1056;-76
2022/10/08 15:19:11;;;;;;;;;;;;;;;;;;5021798;28;1276;-76
2022/10/08 15:21:36;;;;;;;;;;;;;;;;;;5021646;28;854;-76
2022/10/08 15:24:01;;;;;;;;;;;;;;;;;;5021777;28;1904;-76
2022/10/08 15:26:26;;;;;;;;;;;;;;;;;;5021589;28;1067;-76
2022/10/08 15:28:53;;;;;;;;;;;;;;;;;;5021657;28;1248;-76
2022/10/08 15:31:19;;;;;;;;;;;;;;;;;;5021131;28;819;-77
2022/10/08 15:33:46;;;;;;;;;;;;;;;;;;5021325;28;814;-76
2022/10/08 15:36:16;;;;;;;;;;;;;;;;;;5021317;28;1739;-76
2022/10/08 15:38:41;;;;;;;;;;;;;;;;;;5021465;28;1274;-76
2022/10/08 15:41:06;;;;;;;;;;;;;;;;;;5021696;28;891;-76
2022/10/08 15:43:32;;;;;;;;;;;;;;;;;;5021533;28;824;-76
2022/10/08 15:45:57;;;;;;;;;;;;;;;;;;5021262;28;1947;-76
2022/10/08 15:48:23;;;;;;;;;;;;;;;;;;5021175;28;1176;-76
2022/10/08 15:50:58;;;;;;;;;;;;;;;;;;5021643;28;787;-76
2022/10/08 15:53:23;;;;;;;;;;;;;;;;;;5021558;28;838;-76
2022/10/08 15:55:55;;;;;;;;;;;;;;;;;;5021121;28;843;-76
2022/10/08 15:58:20;;;;;;;;;;;;;;;;;;5021774;28;1266;-77
2022/10/08 16:00:45;;;;;;;;;;;;;;;;;;5021408;28;784;-77
2022/10/08 16:03:10;;;;;;;;;;;;;;;;;;5021111;28;791;-77
2022/10/08 16:05:35;;;;;;;;;;;;;;;;;;5021193;28;1957;-77
2022/10/08 16:08:01;;;;;;;;;;;;;;;;;;5020747;28;1140;-77
2022/10/08 16:10:26;;;;;;;;;;;;;;;;;;5019797;28;1135;-77
2022/10/08 16:12:51;;;;;;;;;;;;;;;;;;5021258;28;941;-77
2022/10/08 16:15:16;;;;;;;;;;;;;;;;;;5020823;28;878;-78
2022/10/08 16:17:41;;;;;;;;;;;;;;;;;;5030810;28;1145;-79
2022/10/08 16:20:07;;;;;;;;;;;;;;;;;;5022314;28;1041;-77
2022/10/08 16:22:32;;;;;;;;;;;;;;;;;;5021276;28;874;-77
2022/10/08 16:24:57;;;;;;;;;;;;;;;;;;5020653;28;1894;-77
2022/10/08 16:27:22;;;;;;;;;;;;;;;;;;5021072;28;1231;-77
2022/10/08 16:29:47;;;;;;;;;;;;;;;;;;5020754;28;795;-77
2022/10/08 16:32:13;;;;;;;;;;;;;;;;;;5021006;28;949;-77
2022/10/08 16:34:38;;;;;;;;;;;;;;;;;;5020632;28;818;-78
2022/10/08 16:37:03;;;;;;;;;;;;;;;;;;5020911;28;874;-77
2022/10/08 16:39:29;;;;;;;;;;;;;;;;;;5020693;28;1239;-77
2022/10/08 16:41:54;;;;;;;;;;;;;;;;;;5020705;28;993;-77
2022/10/08 16:44:19;;;;;;;;;;;;;;;;;;5023224;28;1894;-77
2022/10/08 16:46:47;;;;;;;;;;;;;;;;;;5023964;28;804;-77
2022/10/08 16:49:16;;;;;;;;;;;;;;;;;;5023956;28;1232;-77
2022/10/08 16:51:42;;;;;;;;;;;;;;;;;;5022688;28;836;-77
2022/10/08 16:54:09;;;;;;;;;;;;;;;;;;5024285;28;989;-78
2022/10/08 16:56:35;;;;;;;;;;;;;;;;;;5024139;28;905;-77
2022/10/08 16:59:01;;;;;;;;;;;;;;;;;;5023894;28;1153;-76
2022/10/08 17:01:27;;;;;;;;;;;;;;;;;;5023929;28;973;-76
2022/10/08 17:03:52;;;;;;;;;;;;;;;;;;5024204;28;1072;-76
2022/10/08 17:06:18;;;;;;;;;;;;;;;;;;5023763;28;1902;-76
2022/10/08 17:08:44;;;;;;;;;;;;;;;;;;5023867;28;1129;-76
2022/10/08 17:11:10;;;;;;;;;;;;;;;;;;5023998;28;893;-77
2022/10/08 17:13:45;;;;;;;;;;;;;;;;;;5023982;28;843;-76
2022/10/08 17:16:11;;;;;;;;;;;;;;;;;;5023270;28;964;-76
2022/10/08 17:18:36;;;;;;;;;;;;;;;;;;5023442;28;1120;-77
2022/10/08 17:21:02;;;;;;;;;;;;;;;;;;5024185;28;862;-78